Terminal Aerodrome Forecast
Issued by NWS Wilmington, OH

Current Version | Previous Version | Graphics & Text | Print | Product List | Glossary On
Versions: 1 2 3 4 5 6 7 8 9 10 11 12 13 14 15 16 17 18 19 20
000
FTUS41 KILN 292300
TAFDAY
TAF
KDAY 292335Z 3000/3024 33006KT P6SM VCSH SCT025 BKN035
      TEMPO 3000/3003 BKN025
     FM300300 27008KT P6SM SCT018 BKN025
     FM301000 24007KT 5SM BR BKN018
     FM301300 24010KT P6SM SCT018 BKN035
     FM301700 25013G22KT P6SM BKN035=

USA.gov is the U.S. government's official web portal to all federal, state and local government web resources and services.